createdAt,value
2018-12-27T00:01:37.558Z,18.73
2018-12-27T00:04:48.736Z,22.30
2018-12-27T00:07:56.611Z,24.65
2018-12-27T00:13:51.833Z,122.60
2018-12-27T00:16:59.982Z,155.05
2018-12-27T00:20:03.062Z,31.30
2018-12-27T00:23:06.221Z,26.23
2018-12-27T00:26:19.301Z,36.48
2018-12-27T00:29:18.098Z,22.98
2018-12-27T00:32:19.593Z,23.40
2018-12-27T00:35:22.000Z,23.18
2018-12-27T00:41:23.458Z,132.70
2018-12-27T00:44:38.529Z,114.52
2018-12-27T00:47:30.587Z,27.77
2018-12-27T00:50:19.790Z,24.65
2018-12-27T00:53:12.536Z,66.28
2018-12-27T00:56:06.881Z,56.42
2018-12-27T00:58:55.011Z,20.80
2018-12-27T01:01:47.257Z,20.72
2018-12-27T01:04:36.067Z,20.92
2018-12-27T01:07:24.384Z,18.73
2018-12-27T01:10:18.594Z,17.02
2018-12-27T01:13:06.878Z,20.20
2018-12-27T01:15:58.028Z,23.55
2018-12-27T01:18:51.260Z,16.97
2018-12-27T01:21:42.009Z,17.95
2018-12-27T01:24:32.043Z,16.67
2018-12-27T01:27:21.566Z,22.40
2018-12-27T01:30:16.363Z,16.80
2018-12-27T01:33:18.520Z,20.48
2018-12-27T01:36:06.421Z,17.00
2018-12-27T01:38:57.709Z,14.07
2018-12-27T01:41:49.448Z,13.43
2018-12-27T01:44:41.420Z,19.65
2018-12-27T01:47:37.900Z,14.58
2018-12-27T01:50:26.138Z,17.23
2018-12-27T01:53:15.774Z,26.00
2018-12-27T01:56:12.568Z,16.67
2018-12-27T01:59:10.338Z,18.52
2018-12-27T02:01:58.304Z,21.42
2018-12-27T02:05:12.961Z,14.03
2018-12-27T02:08:22.128Z,55.05
2018-12-27T02:11:15.572Z,16.55
2018-12-27T02:14:49.296Z,17.60
2018-12-27T02:18:01.150Z,19.48
2018-12-27T02:20:50.112Z,17.95
2018-12-27T02:23:39.260Z,17.30
2018-12-27T02:26:28.841Z,16.02
2018-12-27T02:29:21.286Z,15.15
2018-12-27T02:32:14.053Z,14.83
2018-12-27T02:35:09.491Z,13.90
2018-12-27T02:38:07.565Z,131.03
2018-12-27T02:41:11.558Z,46.53
2018-12-27T02:44:25.316Z,16.55
2018-12-27T02:47:31.147Z,12.58
2018-12-27T02:50:34.051Z,11.50
2018-12-27T02:53:26.188Z,14.55
2018-12-27T02:56:31.596Z,10.65
2018-12-27T02:59:28.129Z,11.38
2018-12-27T03:02:33.440Z,10.25
2018-12-27T03:05:37.849Z,12.78
2018-12-27T03:08:55.281Z,13.58
2018-12-27T03:11:50.943Z,13.95
2018-12-27T03:14:40.399Z,7.60
2018-12-27T03:17:34.748Z,10.43
2018-12-27T03:20:28.793Z,28.38
2018-12-27T03:23:17.754Z,123.60
2018-12-27T03:26:32.493Z,11.68
2018-12-27T03:30:20.017Z,37.13
2018-12-27T03:33:18.732Z,20.48
2018-12-27T03:36:02.586Z,8.75
2018-12-27T03:39:12.801Z,9.20
2018-12-27T03:42:07.800Z,12.18
2018-12-27T03:47:59.098Z,10.15
2018-12-27T03:50:57.332Z,15.60
2018-12-27T03:54:11.441Z,67.32
2018-12-27T03:57:08.424Z,15.10
2018-12-27T04:01:12.030Z,88.20
2018-12-27T04:17:00.453Z,31.20
2018-12-27T04:20:37.378Z,56.30
2018-12-27T04:23:48.969Z,12.18
2018-12-27T04:26:37.190Z,9.30
2018-12-27T04:29:56.314Z,11.25
2018-12-27T04:32:57.366Z,7.70
2018-12-27T04:39:48.325Z,23.20
2018-12-27T04:42:40.970Z,7.20
2018-12-27T04:49:44.891Z,12.88
2018-12-27T04:53:36.883Z,10.05
2018-12-27T04:57:54.633Z,10.23
2018-12-27T05:00:15.883Z,13.22
2018-12-27T05:03:15.028Z,9.30
2018-12-27T05:10:42.635Z,15.60
2018-12-27T05:17:54.102Z,13.55
2018-12-27T05:22:28.187Z,61.20
2018-12-27T05:25:14.390Z,63.35
2018-12-27T05:31:48.828Z,17.37
2018-12-27T05:34:50.264Z,12.07
2018-12-27T05:38:14.366Z,12.80
2018-12-27T05:41:55.397Z,114.90
2018-12-27T05:44:40.336Z,75.60
2018-12-27T05:48:58.161Z,14.18
2018-12-27T06:06:05.557Z,14.63
2018-12-27T06:09:29.861Z,11.25
2018-12-27T06:19:01.750Z,6.67
2018-12-27T06:22:13.242Z,11.68
2018-12-27T06:28:48.128Z,14.20
2018-12-27T06:32:17.968Z,7.80
2018-12-27T06:35:45.281Z,37.28
2018-12-27T06:38:49.782Z,34.05
2018-12-27T06:42:00.586Z,121.35
2018-12-27T06:45:14.883Z,36.60
2018-12-27T06:48:20.412Z,21.33
2018-12-27T06:51:09.138Z,30.92
2018-12-27T06:54:44.720Z,31.75
2018-12-27T06:58:07.575Z,14.87
2018-12-27T07:05:01.771Z,94.15
2018-12-27T07:07:56.259Z,15.78
2018-12-27T07:10:55.593Z,13.10
2018-12-27T07:14:06.741Z,12.40
2018-12-27T07:17:15.603Z,12.07
2018-12-27T07:20:38.803Z,17.10
2018-12-27T07:24:12.972Z,16.30
2018-12-27T07:27:24.630Z,13.78
2018-12-27T07:30:16.081Z,18.55
2018-12-27T07:33:10.778Z,12.58
2018-12-27T07:35:59.112Z,15.78
2018-12-27T07:39:25.113Z,10.78
2018-12-27T07:42:34.387Z,18.82
2018-12-27T07:49:26.961Z,120.60
2018-12-27T07:52:26.394Z,47.35
2018-12-27T07:55:37.102Z,81.78
2018-12-27T07:58:59.622Z,37.98
2018-12-27T08:02:27.603Z,28.87
2018-12-27T08:05:18.176Z,40.98
2018-12-27T08:08:06.262Z,31.42
2018-12-27T08:10:54.286Z,31.10
2018-12-27T08:13:48.375Z,38.20
2018-12-27T08:16:39.452Z,43.05
2018-12-27T08:19:27.472Z,35.73
2018-12-27T08:22:15.461Z,32.55
2018-12-27T08:25:03.323Z,32.70
2018-12-27T08:27:51.561Z,36.93
2018-12-27T08:30:39.414Z,33.33
2018-12-27T08:33:27.243Z,32.25
2018-12-27T08:36:15.121Z,28.30
2018-12-27T08:39:03.857Z,26.02
2018-12-27T08:41:52.572Z,27.65
2018-12-27T08:44:40.228Z,26.87
2018-12-27T08:47:27.944Z,22.60
2018-12-27T08:50:15.788Z,20.75
2018-12-27T08:53:03.917Z,32.85
2018-12-27T08:55:51.812Z,153.23
2018-12-27T08:58:39.417Z,145.43
2018-12-27T09:01:31.347Z,95.65
2018-12-27T09:04:19.188Z,103.45
2018-12-27T09:07:06.817Z,171.47
2018-12-27T09:09:54.466Z,198.97
2018-12-27T09:12:42.088Z,39.05
2018-12-27T09:15:30.055Z,32.63
2018-12-27T09:18:17.773Z,137.82
2018-12-27T09:21:05.599Z,176.70
2018-12-27T09:23:53.272Z,136.82
2018-12-27T09:26:41.204Z,26.10
2018-12-27T09:29:28.945Z,51.45
2018-12-27T09:32:16.471Z,144.50
2018-12-27T09:35:04.763Z,161.30
2018-12-27T09:37:58.982Z,132.72
2018-12-27T09:40:46.961Z,173.97
2018-12-27T09:43:34.657Z,231.05
2018-12-27T09:46:22.670Z,20.27
2018-12-27T09:49:10.636Z,57.13
2018-12-27T09:52:02.298Z,198.55
2018-12-27T09:54:50.057Z,126.45
2018-12-27T09:57:37.837Z,25.35
2018-12-27T10:00:25.359Z,31.75
2018-12-27T10:03:13.224Z,126.47
2018-12-27T10:06:04.606Z,159.67
2018-12-27T10:08:52.516Z,69.12
2018-12-27T10:11:40.086Z,133.30
2018-12-27T10:14:27.908Z,107.12
2018-12-27T10:17:15.632Z,32.98
2018-12-27T10:20:03.298Z,42.95
2018-12-27T10:22:51.322Z,153.57
2018-12-27T10:25:39.390Z,194.55
2018-12-27T10:28:27.047Z,21.57
2018-12-27T10:31:14.795Z,23.27
2018-12-27T10:34:02.530Z,65.42
2018-12-27T10:36:50.479Z,116.70
2018-12-27T10:39:39.188Z,91.40
2018-12-27T10:42:26.786Z,17.15
2018-12-27T10:45:15.374Z,31.25
2018-12-27T10:48:05.053Z,96.17
2018-12-27T10:50:54.025Z,87.82
2018-12-27T10:53:41.524Z,18.45
2018-12-27T10:56:29.098Z,37.90
2018-12-27T10:59:16.526Z,78.12
2018-12-27T11:02:04.212Z,135.35
2018-12-27T11:04:51.902Z,118.13
2018-12-27T11:07:39.931Z,118.13
2018-12-27T11:10:27.722Z,113.47
2018-12-27T11:13:15.066Z,125.70
2018-12-27T11:16:02.250Z,160.90
2018-12-27T11:18:49.583Z,125.58
2018-12-27T11:21:36.859Z,146.15
2018-12-27T11:24:24.549Z,9.85
2018-12-27T11:27:12.502Z,36.42
2018-12-27T11:30:00.231Z,151.45
2018-12-27T11:32:49.161Z,244.40
2018-12-27T11:35:36.832Z,108.55
2018-12-27T11:38:24.541Z,183.87
2018-12-27T11:41:14.212Z,206.68
2018-12-27T11:44:02.133Z,17.35
2018-12-27T11:46:49.996Z,18.27
2018-12-27T11:49:38.062Z,113.40
2018-12-27T11:52:26.004Z,189.75
2018-12-27T11:55:13.803Z,171.68
2018-12-27T11:58:01.618Z,103.07
2018-12-27T12:00:49.746Z,205.07
2018-12-27T12:03:37.636Z,145.75
2018-12-27T12:06:25.320Z,90.32
2018-12-27T12:09:13.176Z,8.53
2018-12-27T12:12:01.001Z,38.67
2018-12-27T12:14:48.529Z,182.00
2018-12-27T12:17:36.362Z,184.32
2018-12-27T12:20:24.455Z,76.57
2018-12-27T12:23:12.425Z,190.88
2018-12-27T12:26:00.148Z,174.32
2018-12-27T12:28:47.848Z,105.45
2018-12-27T12:31:35.522Z,161.80
2018-12-27T12:34:23.457Z,163.18
2018-12-27T12:37:14.193Z,57.93
2018-12-27T12:40:00.865Z,5.95
2018-12-27T12:42:48.807Z,106.70
2018-12-27T12:45:36.468Z,190.20
2018-12-27T12:48:25.314Z,103.72
2018-12-27T12:51:13.230Z,7.53
2018-12-27T12:54:01.267Z,73.57
2018-12-27T12:56:49.242Z,139.62
2018-12-27T12:59:36.935Z,140.28
2018-12-27T13:02:24.586Z,110.30
2018-12-27T13:05:12.375Z,152.05
2018-12-27T13:08:00.191Z,114.17
2018-12-27T13:10:47.719Z,4.97
2018-12-27T13:13:35.137Z,14.65
2018-12-27T13:16:22.846Z,127.00
2018-12-27T13:19:10.714Z,149.77
2018-12-27T13:21:58.111Z,90.83
2018-12-27T13:24:45.765Z,178.95
2018-12-27T13:27:33.630Z,149.20
2018-12-27T13:30:21.376Z,73.65
2018-12-27T13:33:09.179Z,148.50
2018-12-27T13:35:56.598Z,213.00
2018-12-27T13:38:44.515Z,151.57
2018-12-27T13:41:32.171Z,167.75
2018-12-27T13:44:19.785Z,147.93
2018-12-27T13:47:07.384Z,5.22
2018-12-27T13:49:54.995Z,23.35
2018-12-27T13:52:42.521Z,32.95
2018-12-27T13:55:30.482Z,135.95
2018-12-27T13:58:18.127Z,64.10
2018-12-27T14:01:05.906Z,93.12
2018-12-27T14:03:53.536Z,136.92
2018-12-27T14:06:40.876Z,99.13
2018-12-27T14:09:28.645Z,147.25
2018-12-27T14:12:16.251Z,164.28
2018-12-27T14:15:04.226Z,173.95
2018-12-27T14:17:51.572Z,99.83
2018-12-27T14:20:39.148Z,180.70
2018-12-27T14:23:26.702Z,31.40
2018-12-27T14:26:14.340Z,27.22
2018-12-27T14:29:01.722Z,24.27
2018-12-27T14:31:49.288Z,26.25
2018-12-27T14:34:36.931Z,27.77
2018-12-27T14:37:24.885Z,17.20
2018-12-27T14:40:12.966Z,29.85
2018-12-27T14:43:00.437Z,29.55
2018-12-27T14:45:48.367Z,26.80
2018-12-27T14:48:36.097Z,22.87
2018-12-27T14:51:23.839Z,28.00
2018-12-27T14:54:11.410Z,46.05
2018-12-27T14:56:59.286Z,51.60
2018-12-27T14:59:47.303Z,43.85
2018-12-27T15:02:34.767Z,46.88
2018-12-27T15:05:22.593Z,39.85
2018-12-27T15:08:09.963Z,48.68
2018-12-27T15:10:57.880Z,47.70
2018-12-27T15:13:45.275Z,47.80
2018-12-27T15:16:32.857Z,42.75
2018-12-27T15:19:20.742Z,41.50
2018-12-27T15:22:08.290Z,36.40
2018-12-27T15:24:55.665Z,112.12
2018-12-27T15:27:43.613Z,194.37
2018-12-27T15:30:31.526Z,33.05
2018-12-27T15:33:19.242Z,38.38
2018-12-27T15:36:06.775Z,54.90
2018-12-27T15:38:54.081Z,54.05
2018-12-27T15:41:41.804Z,48.80
2018-12-27T15:44:29.554Z,49.15
2018-12-27T15:47:16.976Z,38.48
2018-12-27T15:50:04.380Z,41.42
2018-12-27T15:52:52.340Z,66.15
2018-12-27T15:55:40.132Z,58.52
2018-12-27T15:58:27.794Z,61.95
2018-12-27T16:01:15.059Z,63.20
2018-12-27T16:04:03.501Z,53.15
2018-12-27T16:06:51.277Z,47.45
2018-12-27T16:09:38.890Z,73.60
2018-12-27T16:12:26.624Z,76.35
2018-12-27T16:15:14.722Z,92.53
2018-12-27T16:18:02.381Z,74.60
2018-12-27T16:20:50.199Z,73.50
2018-12-27T16:23:38.141Z,229.60
2018-12-27T16:26:26.030Z,126.42
2018-12-27T16:29:13.678Z,175.55
2018-12-27T16:32:01.226Z,101.12
2018-12-27T16:34:49.088Z,98.80
2018-12-27T16:37:37.164Z,85.32
2018-12-27T16:40:24.730Z,105.37
2018-12-27T16:43:12.691Z,73.07
2018-12-27T16:46:00.781Z,79.10
2018-12-27T16:48:48.692Z,111.88
2018-12-27T16:51:36.664Z,103.05
2018-12-27T16:54:24.838Z,107.70
2018-12-27T16:57:19.398Z,88.58
2018-12-27T17:00:01.637Z,80.05
2018-12-27T17:02:49.235Z,95.03
2018-12-27T17:05:37.365Z,80.38
2018-12-27T17:08:25.245Z,79.40
2018-12-27T17:11:13.541Z,77.20
2018-12-27T17:14:01.049Z,78.35
2018-12-27T17:16:48.986Z,78.70
2018-12-27T17:19:36.716Z,109.50
2018-12-27T17:22:24.745Z,116.35
2018-12-27T17:25:12.891Z,139.68
2018-12-27T17:28:00.634Z,23.45
2018-12-27T17:30:48.510Z,18.12
2018-12-27T17:33:36.299Z,20.52
2018-12-27T17:36:24.469Z,57.17
2018-12-27T17:39:11.788Z,120.70
2018-12-27T17:41:59.820Z,159.95
2018-12-27T17:44:47.843Z,132.27
2018-12-27T17:47:35.845Z,36.33
2018-12-27T17:50:23.321Z,48.87
2018-12-27T17:53:11.531Z,183.62
2018-12-27T17:55:59.532Z,168.95
2018-12-27T17:58:50.028Z,82.27
2018-12-27T18:01:40.544Z,53.73
2018-12-27T18:04:29.577Z,145.30
2018-12-27T18:07:20.312Z,172.78
2018-12-27T18:10:08.460Z,29.18
2018-12-27T18:12:56.756Z,41.00
2018-12-27T18:15:44.783Z,166.77
2018-12-27T18:18:32.281Z,164.20
2018-12-27T18:21:19.796Z,136.90
2018-12-27T18:24:07.627Z,29.55
2018-12-27T18:26:55.478Z,55.58
2018-12-27T18:29:43.217Z,38.95
2018-12-27T18:32:31.140Z,27.98
2018-12-27T18:35:19.328Z,31.35
2018-12-27T18:38:07.600Z,28.65
2018-12-27T18:40:56.531Z,32.13
2018-12-27T18:43:47.470Z,30.77
2018-12-27T18:46:35.566Z,35.50
2018-12-27T18:49:23.393Z,42.50
2018-12-27T18:52:10.512Z,44.48
2018-12-27T18:54:58.342Z,50.45
2018-12-27T18:57:46.651Z,41.13
2018-12-27T19:00:36.279Z,40.65
2018-12-27T19:03:26.892Z,44.40
2018-12-27T19:06:15.121Z,54.65
2018-12-27T19:09:03.189Z,44.73
2018-12-27T19:12:26.798Z,32.17
2018-12-27T19:15:18.455Z,26.90
2018-12-27T19:18:32.993Z,66.15
2018-12-27T19:21:31.527Z,95.10
2018-12-27T19:24:19.341Z,60.92
2018-12-27T19:27:06.879Z,64.07
2018-12-27T19:29:54.858Z,79.45
2018-12-27T19:32:42.770Z,73.78
2018-12-27T19:35:31.012Z,36.33
2018-12-27T19:38:20.231Z,23.02
2018-12-27T19:41:10.039Z,33.88
2018-12-27T19:43:57.711Z,38.13
2018-12-27T19:46:45.770Z,72.50
2018-12-27T19:49:33.983Z,201.15
2018-12-27T19:52:30.802Z,219.10
2018-12-27T19:55:18.512Z,165.35
2018-12-27T19:58:06.253Z,142.32
2018-12-27T20:00:53.935Z,120.90
2018-12-27T20:03:41.932Z,140.62
2018-12-27T20:06:29.689Z,141.85
2018-12-27T20:09:17.528Z,142.00
2018-12-27T20:12:05.225Z,145.53
2018-12-27T20:14:52.963Z,161.22
2018-12-27T20:17:41.896Z,152.87
2018-12-27T20:20:29.843Z,140.50
2018-12-27T20:23:17.970Z,222.70
2018-12-27T20:26:06.234Z,62.03
2018-12-27T20:28:54.155Z,54.20
2018-12-27T20:31:41.846Z,123.22
2018-12-27T20:34:29.600Z,66.40
2018-12-27T20:37:18.021Z,74.67
2018-12-27T20:40:07.208Z,80.77
2018-12-27T20:42:58.705Z,73.47
2018-12-27T20:45:49.318Z,75.32
2018-12-27T20:48:37.678Z,68.90
2018-12-27T20:51:28.792Z,58.85
2018-12-27T20:54:19.131Z,70.12
2018-12-27T20:57:08.203Z,65.90
2018-12-27T21:00:00.263Z,110.10
2018-12-27T21:02:48.634Z,179.05
2018-12-27T21:05:37.587Z,302.20
2018-12-27T21:08:25.741Z,187.97
2018-12-27T21:11:17.469Z,173.85
2018-12-27T21:14:08.007Z,214.40
2018-12-27T21:16:59.478Z,87.92
2018-12-27T21:19:48.155Z,216.75
2018-12-27T21:22:46.957Z,260.85
2018-12-27T21:25:35.336Z,259.02
2018-12-27T21:28:25.826Z,230.87
2018-12-27T21:31:14.136Z,127.90
2018-12-27T21:34:02.696Z,138.92
2018-12-27T21:36:55.950Z,128.53
2018-12-27T21:39:44.576Z,174.15
2018-12-27T21:42:38.700Z,152.10
2018-12-27T21:45:27.286Z,116.65
2018-12-27T21:48:15.472Z,142.60
2018-12-27T21:51:06.161Z,190.53
2018-12-27T21:54:00.066Z,41.18
2018-12-27T21:56:50.569Z,172.62
2018-12-27T21:59:38.535Z,72.15
2018-12-27T22:02:26.663Z,100.90
2018-12-27T22:05:14.963Z,61.83
2018-12-27T22:08:02.768Z,51.35
2018-12-27T22:10:50.674Z,52.80
2018-12-27T22:13:38.310Z,69.82
2018-12-27T22:16:26.267Z,164.10
2018-12-27T22:19:13.758Z,144.43
2018-12-27T22:22:02.453Z,135.18
2018-12-27T22:24:50.210Z,147.47
2018-12-27T22:27:39.403Z,192.70
2018-12-27T22:30:34.459Z,216.12
2018-12-27T22:33:22.407Z,59.03
2018-12-27T22:36:11.309Z,109.52
2018-12-27T22:38:59.174Z,127.55
2018-12-27T22:41:46.819Z,86.15
2018-12-27T22:44:34.908Z,58.98
2018-12-27T22:47:22.588Z,38.40
2018-12-27T22:50:10.493Z,117.10
2018-12-27T22:52:58.492Z,141.45
2018-12-27T22:55:56.751Z,131.87
2018-12-27T22:58:44.837Z,104.03
2018-12-27T23:01:32.792Z,160.88
2018-12-27T23:04:24.887Z,207.50
2018-12-27T23:07:17.880Z,101.42
2018-12-27T23:10:09.419Z,84.42
2018-12-27T23:12:58.316Z,142.45
2018-12-27T23:15:50.666Z,128.75
2018-12-27T23:18:39.238Z,181.40
2018-12-27T23:21:31.278Z,85.55
2018-12-27T23:24:20.876Z,184.63
2018-12-27T23:27:09.175Z,157.22
2018-12-27T23:29:57.399Z,137.97
2018-12-27T23:32:45.219Z,194.47
2018-12-27T23:35:36.063Z,198.62
2018-12-27T23:38:26.314Z,192.75
2018-12-27T23:41:14.298Z,207.70
2018-12-27T23:44:05.381Z,72.70
2018-12-27T23:46:59.470Z,53.00
2018-12-27T23:49:47.361Z,73.97
2018-12-27T23:52:35.409Z,63.78
2018-12-27T23:55:23.699Z,62.15
2018-12-27T23:58:13.276Z,59.70
